Time;durP1;ratioP1;P1;durP2;ratioP2;P2;SDS_P1;SDS_P2;PMS_P1;PMS_P2;Temp;Humidity;BMP_temperature;BMP_pressure;BME280_temperature;BME280_humidity;BME280_pressure;Samples;Min_cycle;Max_cycle;Signal;HPM_P1;HPM_P2
2021/08/19 00:02:17;;;;;;;10.00;6.00;;;;;;;13.42;72.40;98261.13;125374;1103;24459;-78
2021/08/19 00:04:44;;;;;;;8.90;6.25;;;;;;;13.43;72.81;98269.06;125373;1103;26347;-77
2021/08/19 00:07:25;;;;;;;11.15;5.80;;;;;;;13.43;72.63;98260.05;125413;1102;26370;-78
2021/08/19 00:09:57;;;;;;;11.10;5.80;;;;;;;13.45;72.72;98261.41;125199;1102;23725;-78
2021/08/19 00:12:25;;;;;;;9.70;5.40;;;;;;;13.46;72.31;98256.78;125171;1103;27224;-78
2021/08/19 00:14:54;;;;;;;9.30;5.75;;;;;;;13.48;72.25;98257.33;124992;1101;26037;-78
2021/08/19 00:17:26;;;;;;;11.90;5.83;;;;;;;13.51;72.73;98261.42;125207;1102;26424;-78
2021/08/19 00:19:55;;;;;;;10.15;5.78;;;;;;;13.54;72.37;98255.42;125171;1103;23440;-78
2021/08/19 00:22:22;;;;;;;11.10;5.55;;;;;;;13.54;72.24;98248.03;125210;1102;22802;-78
2021/08/19 00:24:49;;;;;;;8.73;5.20;;;;;;;13.55;72.65;98244.22;125220;1103;22890;-78
2021/08/19 00:27:16;;;;;;;9.50;5.55;;;;;;;13.57;72.67;98249.42;125055;1103;22879;-77
2021/08/19 00:29:43;;;;;;;7.45;4.60;;;;;;;13.58;73.04;98254.63;125754;1103;22937;-78
2021/08/19 00:32:09;;;;;;;10.60;5.45;;;;;;;13.61;73.01;98245.05;125236;1100;22791;-78
2021/08/19 00:34:39;;;;;;;8.60;5.50;;;;;;;13.65;72.68;98238.77;125046;1101;22848;-78
2021/08/19 00:37:06;;;;;;;10.00;5.30;;;;;;;13.68;72.94;98245.61;125012;1103;22957;-78
2021/08/19 00:39:33;;;;;;;9.65;5.50;;;;;;;13.71;72.88;98238.78;125081;1103;22837;-78
2021/08/19 00:42:02;;;;;;;10.30;5.60;;;;;;;13.70;73.12;98243.41;125139;1103;22941;-78
2021/08/19 00:44:30;;;;;;;9.10;5.15;;;;;;;13.71;73.32;98242.34;124966;1103;27322;-78
2021/08/19 00:46:57;;;;;;;8.90;4.60;;;;;;;13.74;73.91;98241.80;125088;1103;24688;-77
2021/08/19 00:49:43;;;;;;;8.35;5.10;;;;;;;13.76;73.49;98242.34;125224;1102;22992;-78
2021/08/19 00:52:15;;;;;;;9.00;5.20;;;;;;;13.77;73.19;98251.38;125348;1103;23159;-79
2021/08/19 00:54:42;;;;;;;8.30;5.57;;;;;;;13.73;73.15;98251.09;125540;1103;22814;-77
2021/08/19 00:57:09;;;;;;;8.17;5.67;;;;;;;13.71;73.51;98247.81;125019;1101;26275;-79
2021/08/19 00:59:38;;;;;;;10.35;5.20;;;;;;;13.68;73.61;98251.89;125077;1103;22797;-79
2021/08/19 01:02:06;;;;;;;7.43;5.08;;;;;;;13.66;73.65;98245.05;125087;1103;24436;-79
2021/08/19 01:04:37;;;;;;;7.60;4.65;;;;;;;13.65;73.74;98248.88;125427;1103;22848;-79
2021/08/19 01:07:14;;;;;;;9.05;5.00;;;;;;;13.64;74.07;98266.41;125228;1102;22886;-79
2021/08/19 01:09:43;;;;;;;;;;;;;;;13.62;74.24;98260.38;125398;1103;23187;-79
2021/08/19 01:12:12;;;;;;;10.00;5.35;;;;;;;13.58;74.19;98260.09;125484;1103;22089;-78
2021/08/19 01:14:41;;;;;;;8.40;5.13;;;;;;;13.53;74.16;98260.08;125504;1101;26022;-78
2021/08/19 01:17:09;;;;;;;11.57;5.20;;;;;;;13.48;74.15;98263.61;125680;1103;22837;-78
2021/08/19 01:19:39;;;;;;;10.28;5.43;;;;;;;13.44;73.87;98256.23;125284;1102;23838;-78
2021/08/19 01:22:09;;;;;;;9.30;4.87;;;;;;;13.43;74.20;98257.31;125261;1103;26309;-78
2021/08/19 01:24:36;;;;;;;8.60;5.40;;;;;;;13.43;74.29;98263.59;125028;1103;24619;-78
2021/08/19 01:27:03;;;;;;;7.90;5.00;;;;;;;13.42;73.99;98261.13;125418;1102;22869;-78
2021/08/19 01:29:30;;;;;;;9.00;5.43;;;;;;;13.39;74.37;98256.21;125566;1103;22980;-78
2021/08/19 01:31:58;;;;;;;9.45;5.20;;;;;;;13.37;74.58;98253.73;125274;1102;26386;-78
2021/08/19 01:34:26;;;;;;;9.48;5.80;;;;;;;13.35;74.89;98253.19;125088;1103;23520;-79
2021/08/19 01:36:53;;;;;;;6.85;4.45;;;;;;;13.32;74.27;98244.70;125169;1103;22825;-79
2021/08/19 01:39:20;;;;;;;8.90;5.45;;;;;;;13.32;75.07;98245.52;125222;1103;27414;-79
2021/08/19 01:41:47;;;;;;;8.33;4.97;;;;;;;13.32;74.94;98255.64;125156;1102;22835;-79
2021/08/19 01:44:14;;;;;;;10.45;5.30;;;;;;;13.30;74.85;98250.41;125052;1101;23948;-79
2021/08/19 01:46:41;;;;;;;9.73;4.90;;;;;;;13.28;74.89;98247.12;125214;1103;24203;-80
2021/08/19 01:49:12;;;;;;;7.80;4.90;;;;;;;13.23;75.00;98247.91;125167;1103;22822;-79
2021/08/19 01:51:40;;;;;;;9.30;4.60;;;;;;;13.17;74.89;98245.41;125088;1103;22835;-79
2021/08/19 01:54:06;;;;;;;8.35;5.10;;;;;;;13.21;75.04;98243.78;124983;1102;22847;-81
2021/08/19 01:56:33;;;;;;;7.20;4.65;;;;;;;13.20;75.32;98251.17;125347;1102;22851;-80
2021/08/19 01:59:00;;;;;;;10.30;5.10;;;;;;;13.20;75.33;98250.36;125260;1103;27313;-80
2021/08/19 02:01:28;;;;;;;10.33;4.97;;;;;;;13.18;75.45;98263.48;125166;1103;24816;-79
2021/08/19 02:03:55;;;;;;;9.10;5.80;;;;;;;13.16;75.81;98257.45;125282;1103;26031;-78
2021/08/19 02:06:24;;;;;;;7.05;4.35;;;;;;;13.15;75.37;98256.61;125312;1103;26143;-79
2021/08/19 02:08:50;;;;;;;10.45;5.20;;;;;;;13.15;76.29;98245.67;125431;1102;22832;-79
2021/08/19 02:11:18;;;;;;;8.20;5.17;;;;;;;13.16;76.09;98250.06;125590;1103;22864;-80
2021/08/19 02:13:45;;;;;;;9.90;5.20;;;;;;;13.13;75.75;98247.86;125357;1103;22818;-79
2021/08/19 02:16:12;;;;;;;9.90;5.20;;;;;;;13.10;76.17;98253.85;125150;1102;22946;-78
2021/08/19 02:18:39;;;;;;;9.40;5.20;;;;;;;13.07;76.25;98249.76;125379;1103;26268;-78
2021/08/19 02:21:06;;;;;;;11.90;6.45;;;;;;;13.06;75.72;98247.28;124968;1103;25001;-79
2021/08/19 02:23:34;;;;;;;8.60;5.10;;;;;;;13.06;75.53;98250.02;125129;1103;22830;-79
2021/08/19 02:26:00;;;;;;;9.85;5.30;;;;;;;13.06;75.76;98248.09;125398;1102;22858;-78
2021/08/19 02:28:28;;;;;;;10.85;6.45;;;;;;;13.08;76.30;98245.95;125056;1103;23892;-78
2021/08/19 02:30:55;;;;;;;10.90;5.70;;;;;;;13.10;75.70;98249.23;125122;1103;24487;-80
2021/08/19 02:33:24;;;;;;;8.60;5.05;;;;;;;13.11;75.43;98248.13;125090;1103;22907;-78
2021/08/19 02:35:53;;;;;;;11.80;5.10;;;;;;;13.15;76.04;98255.80;125316;1103;26283;-78
2021/08/19 02:38:34;;;;;;;10.70;5.30;;;;;;;13.18;75.74;98255.28;125400;1101;22952;-78
2021/08/19 02:41:01;;;;;;;8.60;5.60;;;;;;;13.19;75.74;98259.63;125121;1103;24380;-78
2021/08/19 02:43:27;;;;;;;9.40;6.00;;;;;;;13.21;76.19;98262.92;125420;1102;22985;-78
2021/08/19 02:45:54;;;;;;;12.00;6.20;;;;;;;13.19;75.25;98257.75;125095;1103;22941;-78
2021/08/19 02:48:21;;;;;;;12.00;5.40;;;;;;;13.16;75.71;98258.27;125114;1101;23400;-78
2021/08/19 02:50:53;;;;;;;10.50;5.20;;;;;;;13.13;75.39;98253.33;125380;1103;22841;-78
2021/08/19 02:53:20;;;;;;;8.80;5.50;;;;;;;13.11;75.74;98261.80;125352;1103;22857;-79
2021/08/19 02:55:52;;;;;;;9.65;5.70;;;;;;;13.06;75.93;98252.75;125534;1103;23455;-79
2021/08/19 02:58:23;;;;;;;11.00;5.30;;;;;;;13.03;75.96;98253.28;125196;1103;23403;-79
2021/08/19 03:00:50;;;;;;;;;;;;;;;12.98;76.53;98251.36;125023;1102;22858;-79
2021/08/19 03:03:17;;;;;;;10.83;5.87;;;;;;;12.96;75.97;98253.54;125219;1103;21636;-78
2021/08/19 03:05:43;;;;;;;9.65;5.80;;;;;;;12.95;76.13;98260.08;125381;1103;22953;-79
2021/08/19 03:08:10;;;;;;;9.80;5.00;;;;;;;12.96;76.21;98249.96;125186;1103;22818;-78
2021/08/19 03:10:38;;;;;;;10.20;5.00;;;;;;;12.97;76.79;98243.42;125004;1103;22860;-79
2021/08/19 03:13:05;;;;;;;9.37;5.23;;;;;;;12.97;76.36;98244.23;125378;1103;23455;-78
2021/08/19 03:15:31;;;;;;;9.30;5.75;;;;;;;13.00;76.88;98248.36;125334;1103;22818;-78
2021/08/19 03:17:58;;;;;;;10.00;6.15;;;;;;;12.98;76.44;98243.16;125407;1103;22922;-79
2021/08/19 03:20:25;;;;;;;7.45;5.05;;;;;;;12.96;76.20;98248.07;125008;1101;23141;-78
2021/08/19 03:22:52;;;;;;;10.40;5.00;;;;;;;12.91;76.74;98251.59;125324;1103;27625;-78
2021/08/19 03:25:19;;;;;;;9.90;5.05;;;;;;;12.87;76.66;98253.22;125045;1103;22873;-78
2021/08/19 03:27:46;;;;;;;9.40;5.50;;;;;;;12.86;76.57;98253.48;125264;1103;27381;-79
2021/08/19 03:30:13;;;;;;;10.35;5.40;;;;;;;12.81;76.59;98251.53;125279;1103;22822;-78
2021/08/19 03:32:55;;;;;;;10.55;6.00;;;;;;;12.78;77.28;98256.70;125064;1101;22939;-78
2021/08/19 03:35:22;;;;;;;9.57;5.33;;;;;;;12.73;77.41;98254.78;125061;1102;22890;-78
2021/08/19 03:37:49;;;;;;;8.40;5.00;;;;;;;12.72;77.88;98262.13;125148;1103;27599;-78
2021/08/19 03:40:16;;;;;;;7.90;4.80;;;;;;;12.73;77.55;98262.98;125190;1103;25896;-78
2021/08/19 03:42:43;;;;;;;8.93;4.97;;;;;;;12.72;77.60;98267.59;125054;1102;25982;-78
2021/08/19 03:45:11;;;;;;;9.10;5.40;;;;;;;12.72;78.21;98264.05;125099;1103;22845;-78
2021/08/19 03:47:53;;;;;;;10.30;5.65;;;;;;;12.68;78.29;98261.02;125129;1102;22857;-79
2021/08/19 03:50:27;;;;;;;9.30;5.25;;;;;;;12.65;77.62;98261.55;125039;1103;22919;-78
2021/08/19 03:52:54;;;;;;;10.85;5.10;;;;;;;12.65;77.66;98252.53;125274;1103;22822;-79
2021/08/19 03:55:21;;;;;;;10.10;5.00;;;;;;;12.65;77.56;98247.88;125270;1103;26413;-79
2021/08/19 03:57:48;;;;;;;9.60;5.70;;;;;;;12.66;77.63;98248.70;125299;1101;24362;-79
2021/08/19 04:00:15;;;;;;;8.65;5.75;;;;;;;12.64;77.99;98254.45;125314;1103;23421;-79
2021/08/19 04:02:44;;;;;;;11.65;5.40;;;;;;;12.68;78.27;98250.09;125278;1103;22848;-79
2021/08/19 04:05:11;;;;;;;9.15;5.30;;;;;;;12.68;77.29;98241.09;125208;1103;22825;-79
2021/08/19 04:07:38;;;;;;;9.00;4.85;;;;;;;12.70;77.62;98258.03;125139;1103;26101;-79
2021/08/19 04:10:08;;;;;;;10.40;5.80;;;;;;;12.72;77.47;98256.67;125192;1103;23787;-79
2021/08/19 04:12:40;;;;;;;8.75;5.55;;;;;;;12.75;77.78;98260.80;125063;1102;23476;-79
2021/08/19 04:15:09;;;;;;;11.23;5.37;;;;;;;12.80;77.83;98259.98;125287;1103;22845;-78
2021/08/19 04:17:52;;;;;;;11.40;5.90;;;;;;;12.83;78.53;98248.53;125233;1103;22858;-79
2021/08/19 04:20:20;;;;;;;11.13;5.53;;;;;;;12.89;78.35;98251.04;125120;1103;22819;-78
2021/08/19 04:22:47;;;;;;;9.70;5.17;;;;;;;12.93;77.66;98253.25;125112;1103;25454;-78
2021/08/19 04:25:14;;;;;;;9.00;5.20;;;;;;;12.97;77.99;98262.55;124920;1103;22972;-78
2021/08/19 04:27:41;;;;;;;9.70;5.70;;;;;;;12.99;77.52;98263.11;125050;1103;22822;-79
2021/08/19 04:30:10;;;;;;;11.50;6.00;;;;;;;13.02;77.90;98262.58;124906;1103;24225;-78
2021/08/19 04:32:51;;;;;;;9.80;5.60;;;;;;;13.05;77.74;98251.94;125012;1103;26293;-79
2021/08/19 04:35:18;;;;;;;9.55;5.20;;;;;;;13.06;78.26;98259.03;125417;1103;22989;-78
2021/08/19 04:37:44;;;;;;;9.15;5.20;;;;;;;13.07;78.20;98254.41;125460;1103;27223;-79
2021/08/19 04:40:11;;;;;;;8.15;4.80;;;;;;;13.12;77.93;98268.11;125383;1103;22941;-79
2021/08/19 04:42:38;;;;;;;13.35;5.75;;;;;;;13.17;77.77;98267.28;125342;1103;22838;-79
2021/08/19 04:45:05;;;;;;;11.10;6.20;;;;;;;13.18;77.71;98255.28;125146;1103;22822;-78
2021/08/19 04:47:32;;;;;;;11.80;6.05;;;;;;;13.21;77.36;98265.66;125438;1103;24466;-79
2021/08/19 04:49:59;;;;;;;12.25;6.05;;;;;;;13.19;77.29;98267.84;125487;1103;22848;-79
2021/08/19 04:52:26;;;;;;;8.45;5.60;;;;;;;13.16;77.65;98269.21;124841;1103;22934;-79
2021/08/19 04:54:52;;;;;;;9.70;5.60;;;;;;;13.21;77.55;98271.97;125407;1101;22863;-79
2021/08/19 04:57:19;;;;;;;11.90;5.50;;;;;;;13.28;77.36;98266.27;125432;1102;22826;-79
2021/08/19 04:59:46;;;;;;;9.90;5.65;;;;;;;13.37;77.79;98264.68;125473;1103;26319;-79
2021/08/19 05:02:12;;;;;;;10.00;5.70;;;;;;;13.43;77.81;98263.59;125251;1102;22977;-79
2021/08/19 05:04:39;;;;;;;9.45;6.10;;;;;;;13.51;77.43;98275.95;125153;1102;22952;-79
2021/08/19 05:07:06;;;;;;;10.95;5.95;;;;;;;13.58;77.21;98271.05;125412;1101;22849;-79
2021/08/19 05:09:33;;;;;;;10.10;5.00;;;;;;;13.66;77.49;98272.42;125396;1103;26012;-79
2021/08/19 05:11:59;;;;;;;8.70;5.00;;;;;;;13.74;77.21;98258.22;125133;1101;26332;-79
2021/08/19 05:14:26;;;;;;;9.90;5.40;;;;;;;13.80;77.44;98267.26;125058;1103;23739;-79
2021/08/19 05:17:07;;;;;;;8.63;5.30;;;;;;;13.82;77.14;98263.14;125245;1103;26364;-79
2021/08/19 05:19:34;;;;;;;10.60;5.00;;;;;;;13.86;77.27;98256.05;125408;1101;23099;-79
2021/08/19 05:22:01;;;;;;;10.20;5.50;;;;;;;13.89;76.91;98264.81;125150;1102;26439;-79
2021/08/19 05:24:28;;;;;;;8.50;5.25;;;;;;;13.93;76.85;98263.16;125319;1101;23051;-79
2021/08/19 05:27:09;;;;;;;13.20;6.30;;;;;;;13.99;77.08;98257.44;125063;1103;22928;-79
2021/08/19 05:29:36;;;;;;;9.00;4.80;;;;;;;14.05;76.90;98250.85;125102;1103;22998;-79
2021/08/19 05:32:03;;;;;;;9.90;5.75;;;;;;;14.12;77.29;98256.06;125422;1103;24580;-79
2021/08/19 05:34:29;;;;;;;14.20;5.80;;;;;;;14.19;77.23;98256.61;125055;1103;24153;-79
2021/08/19 05:36:56;;;;;;;8.60;4.95;;;;;;;14.27;77.11;98252.53;125313;1103;24721;-79
2021/08/19 05:39:23;;;;;;;9.25;4.95;;;;;;;14.37;76.99;98265.38;124985;1103;22906;-79
2021/08/19 05:41:51;;;;;;;10.40;5.15;;;;;;;14.42;76.67;98263.45;125308;1101;24522;-79
2021/08/19 05:44:17;;;;;;;10.50;5.60;;;;;;;14.48;76.52;98260.72;125135;1103;22879;-79
2021/08/19 05:46:44;;;;;;;8.75;5.00;;;;;;;14.56;76.84;98260.98;125038;1103;24507;-79
2021/08/19 05:49:25;;;;;;;12.30;5.50;;;;;;;14.66;76.78;98262.09;125319;1102;22865;-79
2021/08/19 05:51:52;;;;;;;15.05;6.30;;;;;;;14.72;76.60;98261.00;125309;1102;22861;-79
2021/08/19 05:54:19;;;;;;;9.55;4.55;;;;;;;14.79;76.72;98264.27;125370;1103;25981;-79
2021/08/19 05:56:46;;;;;;;11.60;4.80;;;;;;;14.89;76.49;98267.00;125341;1100;26391;-79
2021/08/19 05:59:13;;;;;;;9.10;5.25;;;;;;;14.98;76.78;98270.80;125541;1103;22865;-79
2021/08/19 06:01:40;;;;;;;9.20;4.50;;;;;;;15.08;76.37;98275.42;125639;1101;23278;-79
2021/08/19 06:04:06;;;;;;;15.05;5.00;;;;;;;15.17;76.40;98268.28;125388;1103;22876;-79
2021/08/19 06:06:48;;;;;;;8.05;3.95;;;;;;;15.36;76.13;98271.20;125346;1103;23280;-79
2021/08/19 06:09:16;;;;;;;5.50;3.23;;;;;;;15.50;75.93;98263.20;125174;1103;26311;-79
2021/08/19 06:11:42;;;;;;;6.87;3.67;;;;;;;15.66;75.35;98269.42;125210;1103;22847;-79
2021/08/19 06:14:10;;;;;;;7.53;3.83;;;;;;;15.78;74.59;98260.89;125248;1103;22934;-79
2021/08/19 06:16:36;;;;;;;7.73;3.90;;;;;;;15.92;74.13;98259.14;125140;1102;24615;-79
2021/08/19 06:19:03;;;;;;;9.40;4.00;;;;;;;16.06;74.22;98267.57;125428;1102;22911;-79
2021/08/19 06:21:30;;;;;;;6.33;3.50;;;;;;;16.21;73.88;98271.30;125178;1103;23751;-79
2021/08/19 06:23:57;;;;;;;5.90;3.40;;;;;;;16.33;73.61;98263.52;125177;1102;27237;-79
2021/08/19 06:26:24;;;;;;;6.85;3.40;;;;;;;16.48;73.63;98271.64;125272;1102;24641;-79
2021/08/19 06:28:50;;;;;;;4.18;2.78;;;;;;;16.61;72.49;98255.55;125029;1103;26342;-80
2021/08/19 06:31:17;;;;;;;6.83;2.98;;;;;;;16.72;72.58;98265.36;125206;1103;22677;-79
2021/08/19 06:33:44;;;;;;;5.38;2.70;;;;;;;16.85;72.30;98261.13;124993;1103;26319;-79
2021/08/19 06:36:12;;;;;;;7.67;3.87;;;;;;;16.97;71.89;98266.24;124949;1103;26276;-79
2021/08/19 06:38:53;;;;;;;6.13;3.70;;;;;;;17.05;71.77;98258.17;124932;1103;22961;-79
2021/08/19 06:41:22;;;;;;;5.10;3.47;;;;;;;17.14;70.88;98260.26;125070;1103;22825;-78
2021/08/19 06:43:48;;;;;;;4.00;3.13;;;;;;;17.16;70.21;98255.31;124969;1103;22827;-79
2021/08/19 06:46:15;;;;;;;8.23;3.43;;;;;;;17.21;70.19;98255.22;125391;1103;26277;-79
2021/08/19 06:48:42;;;;;;;9.45;3.35;;;;;;;17.25;70.09;98257.10;125204;1102;22846;-79
2021/08/19 06:51:09;;;;;;;4.60;2.65;;;;;;;17.34;69.58;98249.02;125580;1102;22818;-79
2021/08/19 06:53:36;;;;;;;6.70;3.20;;;;;;;17.46;70.24;98249.41;126372;1102;22885;-77
2021/08/19 06:56:04;;;;;;;3.33;2.60;;;;;;;17.60;69.36;98252.27;125812;1103;22845;-77
2021/08/19 06:58:31;;;;;;;5.53;3.37;;;;;;;17.70;69.49;98248.53;125702;1102;22846;-77
2021/08/19 07:00:57;;;;;;;3.83;2.85;;;;;;;17.77;69.17;98253.68;125402;1102;22848;-77
2021/08/19 07:03:26;;;;;;;4.03;2.60;;;;;;;17.82;68.55;98245.34;125781;1102;22854;-77
2021/08/19 07:05:53;;;;;;;3.85;2.90;;;;;;;17.91;68.34;98251.03;125492;1103;22848;-77
2021/08/19 07:08:20;;;;;;;3.93;2.60;;;;;;;18.00;68.51;98233.52;125530;1103;22956;-77
2021/08/19 07:10:46;;;;;;;4.60;2.60;;;;;;;18.08;68.61;98233.95;125497;1102;26296;-77
2021/08/19 07:13:13;;;;;;;5.08;2.63;;;;;;;18.13;67.86;98239.38;125593;1103;22838;-77
2021/08/19 07:15:42;;;;;;;5.58;2.60;;;;;;;18.19;67.78;98240.95;125390;1103;23012;-77
2021/08/19 07:18:09;;;;;;;4.20;2.85;;;;;;;18.26;67.60;98238.63;125580;1103;24344;-79
2021/08/19 07:20:36;;;;;;;3.60;2.75;;;;;;;18.32;67.06;98242.92;125253;1102;26318;-79
2021/08/19 07:23:03;;;;;;;4.63;2.93;;;;;;;18.36;67.26;98232.95;125349;1101;26318;-79
2021/08/19 07:25:30;;;;;;;8.13;3.00;;;;;;;18.43;67.02;98240.00;125108;1101;22841;-79
2021/08/19 07:27:57;;;;;;;8.58;3.13;;;;;;;18.50;67.49;98237.67;125114;1103;23320;-76
2021/08/19 07:30:23;;;;;;;6.80;3.10;;;;;;;18.59;67.01;98224.81;125110;1103;26360;-77
2021/08/19 07:32:51;;;;;;;4.43;2.55;;;;;;;18.66;66.86;98225.27;125085;1103;25935;-77
2021/08/19 07:35:17;;;;;;;2.58;2.38;;;;;;;18.78;66.24;98233.03;125146;1102;25979;-77
2021/08/19 07:37:52;;;;;;;3.80;2.60;;;;;;;18.90;65.75;98227.86;125063;1102;24770;-76
2021/08/19 07:40:22;;;;;;;7.05;2.10;;;;;;;19.05;65.97;98226.77;125226;1102;22983;-80
2021/08/19 07:42:52;;;;;;;4.28;2.30;;;;;;;19.14;65.09;98235.95;125045;1103;22903;-80
2021/08/19 07:45:20;;;;;;;3.35;2.30;;;;;;;19.21;64.93;98230.03;124956;1103;22851;-77
2021/08/19 07:47:47;;;;;;;3.50;2.60;;;;;;;19.25;64.03;98227.47;124925;1103;22850;-78
2021/08/19 07:50:15;;;;;;;2.58;2.20;;;;;;;19.27;64.11;98230.73;124985;1103;26644;-78
2021/08/19 07:52:42;;;;;;;4.47;2.40;;;;;;;19.29;64.05;98232.05;125159;1103;22908;-78
2021/08/19 07:55:11;;;;;;;3.23;2.20;;;;;;;19.35;64.22;98238.28;125044;1103;23823;-78
2021/08/19 07:57:41;;;;;;;4.73;2.57;;;;;;;19.38;64.23;98223.05;125180;1103;26284;-78
2021/08/19 08:00:09;;;;;;;3.88;2.53;;;;;;;19.44;64.17;98230.93;124907;1103;22834;-77
2021/08/19 08:02:36;;;;;;;4.93;1.93;;;;;;;19.52;63.45;98230.19;125043;1103;22820;-78
2021/08/19 08:05:05;;;;;;;6.23;2.30;;;;;;;19.58;62.96;98230.08;124983;1103;24057;-74
2021/08/19 08:07:32;;;;;;;5.83;2.30;;;;;;;19.71;63.17;98234.77;125145;1102;22955;-78
2021/08/19 08:09:59;;;;;;;3.15;1.93;;;;;;;19.79;63.69;98234.05;125008;1103;22899;-78
2021/08/19 08:12:26;;;;;;;3.73;2.30;;;;;;;19.90;63.65;98234.63;125122;1102;24461;-78
2021/08/19 08:14:52;;;;;;;3.03;2.18;;;;;;;19.95;62.21;98237.27;125160;1103;22899;-77
2021/08/19 08:17:19;;;;;;;3.25;1.90;;;;;;;20.00;62.12;98236.34;125000;1103;23218;-78
2021/08/19 08:19:47;;;;;;;3.28;1.63;;;;;;;20.07;62.64;98237.53;125202;1101;22823;-78
2021/08/19 08:22:14;;;;;;;3.85;2.05;;;;;;;20.18;62.71;98235.34;125075;1103;22976;-77
2021/08/19 08:24:42;;;;;;;2.35;2.10;;;;;;;20.28;61.71;98234.28;125066;1102;24516;-78
2021/08/19 08:27:09;;;;;;;2.43;1.80;;;;;;;20.37;62.67;98242.64;125423;1100;24507;-78
2021/08/19 08:29:36;;;;;;;2.48;1.75;;;;;;;20.54;62.81;98248.30;126899;1103;23324;-78
2021/08/19 08:32:06;;;;;;;2.75;1.80;;;;;;;20.62;60.68;98241.20;126159;1102;22976;-76
2021/08/19 08:34:39;;;;;;;2.78;1.75;;;;;;;20.67;60.14;98238.30;126317;1103;22979;-78
2021/08/19 08:37:23;;;;;;;2.78;1.70;;;;;;;20.75;60.44;98240.31;125175;1102;22865;-78
2021/08/19 08:39:55;;;;;;;3.25;1.93;;;;;;;20.87;59.52;98242.47;125360;1103;22869;-78
2021/08/19 08:42:27;;;;;;;3.80;2.00;;;;;;;20.89;59.91;98244.92;125510;1103;22835;-78
2021/08/19 08:45:01;;;;;;;5.10;1.90;;;;;;;20.98;59.83;98243.00;125260;1103;22828;-77
2021/08/19 08:47:48;;;;;;;3.18;2.13;;;;;;;21.10;59.83;98245.98;125317;1103;22848;-77
2021/08/19 08:50:34;;;;;;;2.28;1.78;;;;;;;21.22;58.91;98246.20;125303;1103;22828;-78
2021/08/19 08:53:17;;;;;;;3.03;2.25;;;;;;;21.33;58.67;98243.95;125303;1103;22824;-77
2021/08/19 08:55:47;;;;;;;2.48;1.70;;;;;;;21.43;57.96;98240.08;125143;1103;24357;-78
2021/08/19 08:58:18;;;;;;;2.25;1.85;;;;;;;21.47;58.02;98240.28;125193;1101;27518;-78
2021/08/19 09:00:47;;;;;;;4.63;1.70;;;;;;;21.50;58.18;98240.45;125317;1101;27600;-78
2021/08/19 09:03:16;;;;;;;4.10;1.80;;;;;;;21.54;58.08;98243.39;125077;1103;22989;-78
2021/08/19 09:05:47;;;;;;;2.85;1.90;;;;;;;21.64;57.62;98234.78;125497;1102;22835;-77
2021/08/19 09:08:21;;;;;;;3.28;1.80;;;;;;;21.75;57.23;98233.31;125229;1102;22921;-78
2021/08/19 09:10:53;;;;;;;2.20;1.60;;;;;;;21.83;57.81;98236.42;125346;1103;23908;-78
2021/08/19 09:13:25;;;;;;;1.77;1.23;;;;;;;21.83;57.00;98236.42;125281;1102;22844;-77
2021/08/19 09:15:54;;;;;;;2.23;1.98;;;;;;;21.86;56.11;98227.45;125683;1103;22828;-78
2021/08/19 09:18:34;;;;;;;;;;;;;;;21.84;55.62;98232.52;125451;1103;22844;-77
2021/08/19 09:21:01;;;;;;;3.23;1.93;;;;;;;21.84;56.34;98222.23;125200;1103;21607;-78
2021/08/19 09:23:28;;;;;;;1.50;1.30;;;;;;;21.94;57.00;98230.23;125244;1103;23079;-78
2021/08/19 09:26:10;;;;;;;1.48;1.38;;;;;;;22.09;56.36;98222.56;125170;1103;22851;-78
2021/08/19 09:28:39;;;;;;;3.75;1.53;;;;;;;22.17;55.78;98228.11;125355;1103;22976;-78
2021/08/19 09:31:08;;;;;;;;;;;;;;;22.38;56.26;98221.90;125291;1102;22878;-78
2021/08/19 09:33:50;;;;;;;1.60;1.43;;;;;;;22.51;54.87;98226.45;125270;1101;23265;-78
2021/08/19 09:36:22;;;;;;;2.33;1.40;;;;;;;22.54;53.88;98223.03;125343;1102;23021;-78
2021/08/19 09:38:55;;;;;;;2.73;1.33;;;;;;;22.55;53.93;98238.52;125267;1103;22822;-78
2021/08/19 09:41:55;;;;;;;1.23;1.13;;;;;;;22.56;52.02;98237.39;125296;1103;23180;-77
2021/08/19 09:44:28;;;;;;;1.95;1.30;;;;;;;22.57;53.10;98229.87;125422;1102;22938;-78
2021/08/19 09:46:54;;;;;;;5.53;1.60;;;;;;;22.67;53.37;98232.30;125230;1102;22827;-78
2021/08/19 09:49:28;;;;;;;1.78;1.45;;;;;;;22.77;53.38;98228.37;125412;1103;27530;-77
2021/08/19 09:52:01;;;;;;;2.30;1.20;;;;;;;22.90;53.52;98230.10;125430;1102;23599;-78
2021/08/19 09:54:33;;;;;;;2.60;1.53;;;;;;;23.01;52.14;98226.97;125099;1103;22882;-78
2021/08/19 09:57:02;;;;;;;3.10;1.40;;;;;;;23.01;51.11;98227.77;125557;1103;24486;-78
2021/08/19 09:59:36;;;;;;;4.13;1.60;;;;;;;23.05;51.48;98225.98;125435;1103;22934;-77
2021/08/19 10:02:10;;;;;;;2.58;1.35;;;;;;;23.12;52.31;98231.02;125407;1103;22819;-77
2021/08/19 10:04:55;;;;;;;2.07;1.90;;;;;;;23.19;51.44;98228.54;125267;1101;23975;-78
2021/08/19 10:07:24;;;;;;;3.05;1.60;;;;;;;23.20;51.45;98223.81;125306;1103;22918;-78
2021/08/19 10:10:00;;;;;;;3.50;1.50;;;;;;;23.27;51.22;98226.89;125323;1103;22843;-78
2021/08/19 10:12:27;;;;;;;2.48;1.38;;;;;;;23.36;51.96;98222.09;125516;1103;26299;-78
2021/08/19 10:15:11;;;;;;;2.00;1.30;;;;;;;23.52;52.73;98227.08;125186;1103;23004;-78
2021/08/19 10:18:00;;;;;;;1.78;1.20;;;;;;;23.69;51.27;98221.38;125391;1101;23065;-77
2021/08/19 10:20:53;;;;;;;1.30;1.18;;;;;;;23.74;48.98;98223.16;125271;1103;24026;-78
2021/08/19 10:23:30;;;;;;;1.38;1.20;;;;;;;23.73;49.32;98222.35;125359;1103;25979;-78
2021/08/19 10:26:07;;;;;;;1.73;1.20;;;;;;;23.78;49.94;98224.09;125297;1103;26002;-78
2021/08/19 10:28:51;;;;;;;2.08;1.40;;;;;;;23.78;48.00;98222.16;125172;1103;22845;-77
2021/08/19 10:31:46;;;;;;;1.88;1.10;;;;;;;23.81;48.84;98223.45;125336;1103;22815;-78
2021/08/19 10:34:18;;;;;;;1.30;1.18;;;;;;;23.93;48.91;98222.73;125757;1103;22715;-78
2021/08/19 10:36:48;;;;;;;1.48;1.30;;;;;;;24.02;49.17;98218.70;125819;1103;22903;-78
2021/08/19 10:39:23;;;;;;;3.08;1.10;;;;;;;24.23;50.23;98223.45;124996;1103;22657;-78
2021/08/19 10:41:52;;;;;;;1.25;1.15;;;;;;;24.40;47.25;98216.89;125453;1103;22813;-78
2021/08/19 10:44:29;;;;;;;3.33;1.35;;;;;;;24.32;46.14;98221.39;125475;1102;26361;-78
2021/08/19 10:46:56;;;;;;;1.38;1.10;;;;;;;24.15;46.49;98215.98;125402;1102;22845;-78
2021/08/19 10:49:29;;;;;;;3.08;1.25;;;;;;;24.04;46.51;98215.59;125480;1103;26284;-78
2021/08/19 10:52:09;;;;;;;1.30;1.20;;;;;;;23.98;46.81;98205.84;125626;1103;22822;-78
2021/08/19 10:54:50;;;;;;;3.28;1.40;;;;;;;23.99;47.19;98207.45;125418;1103;24764;-78
2021/08/19 10:57:30;;;;;;;2.93;1.10;;;;;;;24.07;47.23;98209.35;125364;1102;24501;-78
2021/08/19 10:59:59;;;;;;;3.88;1.10;;;;;;;24.19;47.02;98198.28;125579;1101;22845;-78
2021/08/19 11:02:48;;;;;;;1.43;1.00;;;;;;;24.29;45.49;98204.56;125204;1103;22992;-78
2021/08/19 11:05:28;;;;;;;2.43;1.48;;;;;;;24.45;43.94;98197.19;125331;1103;22921;-77
2021/08/19 11:08:04;;;;;;;2.50;1.10;;;;;;;24.60;43.59;98198.55;125116;1103;24488;-78
2021/08/19 11:10:35;;;;;;;2.48;1.40;;;;;;;24.83;44.05;98191.39;125006;1103;26287;-77
2021/08/19 11:13:04;;;;;;;1.85;1.20;;;;;;;24.95;43.08;98189.80;125084;1103;22898;-77
2021/08/19 11:15:32;;;;;;;3.20;1.20;;;;;;;24.92;44.04;98193.27;125144;1102;24350;-78
2021/08/19 11:17:59;;;;;;;1.77;1.37;;;;;;;24.90;44.95;98192.81;125114;1103;24056;-78
2021/08/19 11:20:30;;;;;;;2.58;1.40;;;;;;;24.82;44.22;98189.78;125164;1103;22848;-78
2021/08/19 11:23:02;;;;;;;1.80;0.97;;;;;;;24.62;43.25;98187.88;125194;1103;22848;-78
2021/08/19 11:25:30;;;;;;;1.45;1.08;;;;;;;24.33;43.04;98195.20;125289;1103;22813;-78
2021/08/19 11:28:12;;;;;;;2.15;1.13;;;;;;;24.10;43.42;98194.77;125075;1103;22841;-78
2021/08/19 11:30:50;;;;;;;1.18;0.98;;;;;;;23.83;44.28;98199.73;124980;1103;26024;-78
2021/08/19 11:33:20;;;;;;;3.80;1.30;;;;;;;23.60;44.73;98185.33;125196;1103;22984;-78
2021/08/19 11:36:00;;;;;;;2.63;1.33;;;;;;;23.40;45.18;98192.47;125216;1103;22848;-77
2021/08/19 11:38:28;;;;;;;3.63;1.40;;;;;;;23.23;45.73;98201.73;125449;1103;26376;-78